Time;durP1;ratioP1;P1;durP2;ratioP2;P2;SDS_P1;SDS_P2;PMS_P1;PMS_P2;Temp;Humidity;BMP_temperature;BMP_pressure;BME280_temperature;BME280_humidity;BME280_pressure;Samples;Min_cycle;Max_cycle;Signal;HPM_P1;HPM_P2
2024/04/15 00:00:06;;;;;;;11.07;6.93;;;;;;;18.94;65.99;101764.78;5280917;27;20073;-67
2024/04/15 00:02:38;;;;;;;12.40;7.05;;;;;;;18.94;65.94;101764.78;5280582;27;20037;-67
2024/04/15 00:05:05;;;;;;;10.77;7.03;;;;;;;18.90;66.28;101755.56;5280468;27;20030;-68
2024/04/15 00:07:33;;;;;;;12.32;6.38;;;;;;;18.88;66.36;101755.09;5280574;27;20003;-68
2024/04/15 00:10:00;;;;;;;12.13;7.57;;;;;;;18.85;66.44;101755.72;5280512;27;20014;-68
2024/04/15 00:12:28;;;;;;;10.95;6.70;;;;;;;18.81;66.34;101759.47;5280989;27;20058;-69
2024/04/15 00:14:55;;;;;;;13.93;7.93;;;;;;;18.78;66.58;101755.41;5280128;27;20084;-68
2024/04/15 00:17:23;;;;;;;11.32;7.10;;;;;;;18.76;67.01;101757.72;5280194;27;20521;-67
2024/04/15 00:19:53;;;;;;;11.02;7.85;;;;;;;18.74;67.19;101758.03;5279791;27;20337;-67
2024/04/15 00:22:21;;;;;;;13.23;7.50;;;;;;;18.70;67.79;101758.97;5280360;27;20535;-68
2024/04/15 00:24:49;;;;;;;15.30;7.40;;;;;;;18.66;67.81;101745.06;5280085;27;20016;-67
2024/04/15 00:27:16;;;;;;;9.68;6.90;;;;;;;18.64;68.30;101752.81;5280164;27;20006;-67
2024/04/15 00:29:43;;;;;;;11.90;7.72;;;;;;;18.62;68.76;101744.06;5280148;27;20334;-67
2024/04/15 00:32:11;;;;;;;11.80;7.32;;;;;;;18.61;68.53;101745.22;5280348;27;20018;-67
2024/04/15 00:34:38;;;;;;;11.48;7.10;;;;;;;18.62;68.52;101743.25;5279769;27;20014;-67
2024/04/15 00:37:06;;;;;;;12.38;7.90;;;;;;;18.61;68.02;101730.63;5280301;27;20470;-67
2024/04/15 00:39:35;;;;;;;11.23;6.93;;;;;;;18.61;67.35;101731.44;5280531;27;20003;-67
2024/04/15 00:42:03;;;;;;;10.32;6.50;;;;;;;18.58;67.49;101723.84;5280046;27;20477;-67
2024/04/15 00:44:34;;;;;;;11.07;7.15;;;;;;;18.58;67.09;101723.84;5280167;27;20419;-67
2024/04/15 00:47:03;;;;;;;11.73;7.10;;;;;;;18.56;66.53;101722.53;5280224;27;20002;-67
2024/04/15 00:49:32;;;;;;;10.30;6.93;;;;;;;18.54;65.80;101714.63;5279945;27;20396;-67
2024/04/15 00:52:02;;;;;;;9.18;6.45;;;;;;;18.53;65.52;101715.75;5250007;27;19998;-67
2024/04/15 00:54:32;;;;;;;10.57;6.57;;;;;;;18.49;65.20;101707.34;5280127;27;20007;-67
2024/04/15 00:57:01;;;;;;;13.52;6.75;;;;;;;18.47;64.68;101709.59;5279820;27;20014;-67
2024/04/15 00:59:30;;;;;;;15.48;7.28;;;;;;;18.44;65.00;101707.50;5279563;27;20002;-66
2024/04/15 01:01:59;;;;;;;12.32;6.70;;;;;;;18.41;64.60;101702.63;5279610;27;20010;-68
2024/04/15 01:04:26;;;;;;;11.93;6.38;;;;;;;18.41;64.34;101699.88;5279465;27;20538;-68
2024/04/15 01:06:55;;;;;;;9.23;6.32;;;;;;;18.38;63.81;101695.03;5279917;27;20013;-67
2024/04/15 01:09:23;;;;;;;11.82;6.93;;;;;;;18.40;62.45;101689.22;5279786;27;20488;-69
2024/04/15 01:11:51;;;;;;;10.43;6.50;;;;;;;18.41;61.92;101685.31;5279789;27;20345;-68
2024/04/15 01:14:19;;;;;;;11.82;6.97;;;;;;;18.41;62.15;101675.13;5279544;27;20361;-67
2024/04/15 01:16:48;;;;;;;9.35;6.22;;;;;;;18.40;62.69;101662.50;5279423;27;20047;-68
2024/04/15 01:19:16;;;;;;;11.20;6.78;;;;;;;18.38;62.35;101652.94;5279506;27;20002;-66
2024/04/15 01:21:43;;;;;;;11.23;6.35;;;;;;;18.38;60.60;101647.44;5279449;27;20017;-67
2024/04/15 01:24:11;;;;;;;9.68;5.70;;;;;;;18.41;59.20;101647.59;5279703;27;20002;-68
2024/04/15 01:26:45;;;;;;;8.63;6.03;;;;;;;18.42;59.51;101635.44;5279285;27;20018;-68
2024/04/15 01:29:12;;;;;;;10.32;5.85;;;;;;;18.40;59.56;101634.97;5279719;27;20077;-68
2024/04/15 01:31:40;;;;;;;8.57;5.35;;;;;;;18.39;58.13;101638.84;5279254;27;20010;-69
2024/04/15 01:34:07;;;;;;;6.70;5.20;;;;;;;18.38;57.80;101637.22;5279671;27;20006;-66
2024/04/15 01:36:35;;;;;;;7.00;5.30;;;;;;;18.38;56.92;101647.44;5279702;27;20026;-67
2024/04/15 01:39:02;;;;;;;11.88;5.40;;;;;;;18.35;56.95;101637.88;5279524;27;20013;-68
2024/04/15 01:41:30;;;;;;;9.00;5.80;;;;;;;18.28;56.82;101641.13;5279748;27;20006;-68
2024/04/15 01:43:57;;;;;;;9.45;5.35;;;;;;;18.24;56.92;101631.09;5279405;27;20077;-68
2024/04/15 01:46:25;;;;;;;6.90;5.45;;;;;;;18.21;57.01;101634.50;5279104;27;20461;-67
2024/04/15 01:48:52;;;;;;;7.43;5.38;;;;;;;18.18;57.19;101641.47;5279315;27;20460;-68
2024/04/15 01:51:20;;;;;;;7.60;4.95;;;;;;;18.16;57.14;101637.41;5279166;27;20038;-68
2024/04/15 01:53:47;;;;;;;9.27;5.72;;;;;;;18.13;56.98;101632.56;5278979;27;20014;-67
2024/04/15 01:56:15;;;;;;;11.88;5.55;;;;;;;18.12;56.04;101631.75;5278962;27;20453;-68
2024/04/15 01:58:42;;;;;;;9.52;5.40;;;;;;;18.14;55.84;101629.50;5279326;27;20013;-68
2024/04/15 02:01:10;;;;;;;9.95;5.05;;;;;;;18.16;55.56;101626.41;5279321;27;20075;-69
2024/04/15 02:03:37;;;;;;;9.63;5.40;;;;;;;18.09;57.94;101631.59;5278988;27;20006;-68
2024/04/15 02:06:05;;;;;;;10.80;6.50;;;;;;;17.98;62.37;101633.88;5278817;27;20326;-67
2024/04/15 02:08:33;;;;;;;15.02;6.95;;;;;;;17.87;64.13;101644.38;5278823;27;20399;-68
2024/04/15 02:11:00;;;;;;;14.20;7.07;;;;;;;17.68;66.49;101646.59;5279047;27;20465;-68
2024/04/15 02:13:28;;;;;;;14.38;8.30;;;;;;;17.57;71.85;101657.88;5278928;27;20030;-67
2024/04/15 02:15:55;;;;;;;16.40;8.35;;;;;;;17.45;74.54;101654.94;5277342;27;20038;-67
2024/04/15 02:18:23;;;;;;;14.02;8.35;;;;;;;17.30;76.41;101650.69;5278657;27;20088;-68
2024/04/15 02:20:51;;;;;;;15.63;8.52;;;;;;;17.25;77.21;101655.53;5278505;27;20002;-67
2024/04/15 02:23:18;;;;;;;11.68;7.63;;;;;;;17.22;77.93;101661.66;5278311;27;20101;-66
2024/04/15 02:25:46;;;;;;;13.82;8.20;;;;;;;17.20;78.86;101675.69;5278562;27;20383;-67
2024/04/15 02:28:13;;;;;;;9.40;8.00;;;;;;;17.23;79.26;101677.81;5278805;27;20452;-67
2024/04/15 02:30:40;;;;;;;11.40;8.10;;;;;;;17.23;78.87;101686.03;5278916;27;20021;-68
2024/04/15 02:33:08;;;;;;;13.45;7.43;;;;;;;17.24;78.39;101697.84;5278606;27;20042;-68
2024/04/15 02:35:36;;;;;;;11.27;7.28;;;;;;;17.28;77.88;101698.84;5278660;27;20379;-66
2024/04/15 02:38:04;;;;;;;10.82;7.50;;;;;;;17.33;76.46;101695.94;5278909;27;20013;-67
2024/04/15 02:40:31;;;;;;;12.40;8.15;;;;;;;17.41;73.85;101692.44;5278732;27;20018;-67
2024/04/15 02:43:00;;;;;;;14.20;8.77;;;;;;;17.48;72.47;101691.97;5278613;27;20007;-66
2024/04/15 02:45:27;;;;;;;12.23;9.00;;;;;;;17.54;69.74;101702.50;5278648;27;20434;-67
2024/04/15 02:47:55;;;;;;;12.88;8.57;;;;;;;17.62;66.70;101700.09;5248888;27;20014;-67
2024/04/15 02:50:23;;;;;;;15.52;9.35;;;;;;;17.71;65.54;101706.44;5278368;27;20449;-68
2024/04/15 02:52:51;;;;;;;14.05;9.38;;;;;;;17.79;64.28;101706.47;5278203;27;20030;-67
2024/04/15 02:55:19;;;;;;;12.50;8.48;;;;;;;17.85;63.78;101709.88;5278356;27;20014;-67
2024/04/15 02:57:50;;;;;;;12.20;7.78;;;;;;;17.89;62.21;101710.84;5278580;27;20002;-67
2024/04/15 03:00:17;;;;;;;12.45;7.88;;;;;;;17.91;61.32;101696.78;5278353;27;20448;-68
2024/04/15 03:02:45;;;;;;;10.13;7.40;;;;;;;17.94;60.88;101679.66;5278232;27;20013;-68
2024/04/15 03:05:12;;;;;;;10.95;7.20;;;;;;;17.96;61.07;101669.94;5278062;27;20348;-68
2024/04/15 03:07:40;;;;;;;10.45;7.15;;;;;;;17.99;61.18;101661.03;5277957;27;20006;-68
2024/04/15 03:10:07;;;;;;;11.43;6.70;;;;;;;17.98;61.24;101645.66;5278227;27;20085;-67
2024/04/15 03:12:35;;;;;;;8.90;6.78;;;;;;;17.98;61.17;101629.16;5278660;27;20017;-67
2024/04/15 03:15:02;;;;;;;12.52;6.78;;;;;;;18.01;60.15;101633.22;5277949;27;20002;-67
2024/04/15 03:17:30;;;;;;;10.20;5.90;;;;;;;18.04;60.01;101627.88;5278045;27;20002;-68
2024/04/15 03:19:57;;;;;;;10.27;6.18;;;;;;;18.08;59.27;101608.78;5278062;27;20467;-67
2024/04/15 03:22:25;;;;;;;8.75;6.18;;;;;;;18.13;58.86;101596.78;5278287;27;20066;-67
2024/04/15 03:24:52;;;;;;;8.90;6.03;;;;;;;18.19;58.14;101581.75;5277867;27;20501;-66
2024/04/15 03:27:20;;;;;;;9.48;5.90;;;;;;;18.27;57.18;101578.97;5277780;27;20493;-67
2024/04/15 03:29:48;;;;;;;9.50;5.72;;;;;;;18.34;55.85;101545.47;5277846;27;20002;-67
2024/04/15 03:32:15;;;;;;;9.63;5.40;;;;;;;18.46;55.51;101490.56;5277845;27;20014;-67
2024/04/15 03:34:43;;;;;;;10.88;5.70;;;;;;;18.63;54.14;101475.91;5277598;27;20121;-67
2024/04/15 03:37:10;;;;;;;8.13;4.93;;;;;;;18.77;53.66;101499.66;5277601;27;20030;-67
2024/04/15 03:39:38;;;;;;;8.15;4.97;;;;;;;18.85;53.35;101527.13;5277540;27;20006;-67
2024/04/15 03:42:05;;;;;;;8.70;5.32;;;;;;;18.89;52.83;101530.88;5277363;27;20013;-67
2024/04/15 03:44:34;;;;;;;10.35;5.35;;;;;;;18.94;52.87;101519.66;5277559;27;20029;-67
2024/04/15 03:47:03;;;;;;;7.82;5.03;;;;;;;19.01;51.92;101521.88;5277799;27;20039;-66
2024/04/15 03:49:30;;;;;;;8.25;5.15;;;;;;;19.07;52.47;101534.31;5277508;27;20014;-67
2024/04/15 03:51:59;;;;;;;14.02;6.38;;;;;;;19.11;56.02;101534.47;5277427;27;20080;-67
2024/04/15 03:54:26;;;;;;;17.20;7.00;;;;;;;19.11;57.66;101539.97;5277270;27;20013;-67
2024/04/15 03:56:54;;;;;;;15.18;7.03;;;;;;;18.99;58.07;101560.00;5276857;27;20002;-67
2024/04/15 03:59:21;;;;;;;12.65;7.32;;;;;;;18.88;58.24;101578.00;5277315;27;20135;-67
2024/04/15 04:01:49;;;;;;;14.40;7.20;;;;;;;18.79;59.99;101597.34;5276975;27;20456;-66
2024/04/15 04:04:18;;;;;;;11.02;7.35;;;;;;;18.71;60.66;101596.19;5277310;27;20002;-67
2024/04/15 04:06:46;;;;;;;17.02;8.65;;;;;;;18.64;62.16;101601.41;5277150;27;20166;-67
2024/04/15 04:09:13;;;;;;;13.32;8.52;;;;;;;18.49;64.78;101627.50;5277132;27;20338;-66
2024/04/15 04:11:41;;;;;;;12.07;8.05;;;;;;;18.28;66.03;101623.81;5276737;27;20412;-67
2024/04/15 04:14:08;;;;;;;11.70;8.38;;;;;;;18.18;66.94;101622.19;5277032;27;20013;-67
2024/04/15 04:16:36;;;;;;;10.55;7.60;;;;;;;18.11;67.17;101626.59;5276952;27;20014;-67
2024/04/15 04:19:06;;;;;;;11.63;7.70;;;;;;;18.04;66.23;101605.06;5277246;27;20006;-67
2024/04/15 04:21:33;;;;;;;14.77;7.88;;;;;;;18.07;65.32;101615.44;5277008;27;20003;-68
2024/04/15 04:24:01;;;;;;;9.90;7.43;;;;;;;18.10;65.25;101620.28;5276884;27;20353;-69
2024/04/15 04:26:28;;;;;;;9.95;6.95;;;;;;;18.13;64.40;101622.38;5276281;27;20046;-67
2024/04/15 04:28:59;;;;;;;10.02;7.32;;;;;;;18.16;63.80;101637.41;5262484;27;20081;-67
2024/04/15 04:31:26;;;;;;;13.18;6.75;;;;;;;18.18;62.83;101641.47;5243021;27;20003;-68
2024/04/15 04:33:54;;;;;;;10.73;6.35;;;;;;;18.18;61.63;101646.97;5243017;27;20027;-67
2024/04/15 04:36:21;;;;;;;11.93;7.13;;;;;;;18.20;60.95;101644.72;5242348;27;19999;-68
2024/04/15 04:38:49;;;;;;;10.38;7.05;;;;;;;18.21;60.52;101653.78;5243195;27;20011;-68
2024/04/15 04:41:16;;;;;;;12.38;7.82;;;;;;;18.22;60.73;101636.91;5246698;27;20430;-68
2024/04/15 04:43:44;;;;;;;14.73;9.20;;;;;;;18.24;60.55;101645.66;5246528;27;20019;-69
2024/04/15 04:46:12;;;;;;;11.30;7.97;;;;;;;18.25;60.39;101661.03;5246255;27;20035;-68
2024/04/15 04:48:40;;;;;;;10.32;6.93;;;;;;;18.25;59.69;101666.53;5246438;27;20468;-69
2024/04/15 04:51:09;;;;;;;15.25;7.03;;;;;;;18.31;59.67;101678.19;5245944;27;20015;-72
2024/04/15 04:53:37;;;;;;;14.25;7.40;;;;;;;18.35;59.01;101673.66;5277796;27;20014;-68
2024/04/15 04:56:12;;;;;;;15.13;9.05;;;;;;;18.38;58.89;101677.72;5279671;27;20031;-68
2024/04/15 04:58:41;;;;;;;13.82;7.78;;;;;;;18.45;57.83;101703.59;5253256;27;20458;-67
2024/04/15 05:01:14;;;;;;;13.52;7.70;;;;;;;18.50;57.96;101692.44;5223062;27;20002;-70
2024/04/15 05:03:44;;;;;;;14.73;7.80;;;;;;;18.54;57.76;101700.03;5279432;27;20476;-66
2024/04/15 05:06:13;;;;;;;17.90;8.02;;;;;;;18.56;57.52;101701.34;5279434;27;20353;-67
2024/04/15 05:08:42;;;;;;;16.10;8.50;;;;;;;18.61;56.82;101695.66;5279943;27;20003;-67
2024/04/15 05:11:10;;;;;;;12.75;7.50;;;;;;;18.66;57.34;101678.97;5279674;27;20445;-67
2024/04/15 05:13:39;;;;;;;11.98;7.47;;;;;;;18.77;56.71;101686.91;5269035;27;20018;-68
2024/04/15 05:16:12;;;;;;;13.05;7.78;;;;;;;18.88;55.74;101699.19;5254817;27;20078;-67
2024/04/15 05:18:40;;;;;;;;;;;;;;;18.97;55.33;101689.78;5269483;27;20007;-67
2024/04/15 05:21:13;;;;;;;15.73;6.97;;;;;;;19.12;55.63;101691.19;5256479;27;20270;-67
2024/04/15 05:23:40;;;;;;;14.93;7.50;;;;;;;19.23;55.17;101691.63;5253177;27;20010;-68
2024/04/15 05:26:08;;;;;;;12.40;7.32;;;;;;;19.40;54.69;101694.31;5279009;27;20002;-68
2024/04/15 05:28:36;;;;;;;15.52;7.22;;;;;;;19.64;53.66;101674.44;5273453;27;20006;-68
2024/04/15 05:31:03;;;;;;;15.93;6.75;;;;;;;19.97;53.02;101667.38;5260427;27;19998;-68
2024/04/15 05:33:31;;;;;;;14.18;6.95;;;;;;;20.32;51.42;101665.94;5279291;27;20002;-67
2024/04/15 05:35:58;;;;;;;13.30;6.80;;;;;;;20.70;50.64;101639.31;5277531;27;20014;-66
2024/04/15 05:38:27;;;;;;;13.32;7.55;;;;;;;21.09;49.59;101640.59;5278728;27;20006;-66
2024/04/15 05:40:54;;;;;;;22.73;6.72;;;;;;;21.48;48.11;101635.56;5279187;27;20002;-67
2024/04/15 05:43:21;;;;;;;10.82;6.38;;;;;;;21.89;47.74;101619.81;5278973;27;20380;-67
2024/04/15 05:45:49;;;;;;;16.38;6.97;;;;;;;22.28;46.84;101626.50;5279076;27;20010;-67
2024/04/15 05:48:17;;;;;;;15.27;6.78;;;;;;;22.58;46.15;101604.75;5279069;27;20006;-67
2024/04/15 05:50:45;;;;;;;19.38;6.65;;;;;;;22.90;45.25;101597.28;5277615;27;20002;-67
2024/04/15 05:53:12;;;;;;;14.48;6.38;;;;;;;23.21;44.43;101594.84;5278433;27;20408;-67
2024/04/15 05:55:40;;;;;;;18.17;6.70;;;;;;;23.39;43.13;101594.06;5278816;27;20014;-67
2024/04/15 05:58:08;;;;;;;15.57;6.68;;;;;;;23.44;42.97;101595.78;5279204;27;20002;-67
2024/04/15 06:00:35;;;;;;;13.55;6.30;;;;;;;23.34;42.82;101613.78;5278792;27;20017;-68
2024/04/15 06:03:03;;;;;;;13.77;6.10;;;;;;;23.12;42.79;101612.47;5278487;27;20413;-68
2024/04/15 06:05:32;;;;;;;9.43;5.88;;;;;;;23.04;42.75;101613.47;5249287;27;20013;-66
2024/04/15 06:08:00;;;;;;;10.70;6.28;;;;;;;22.97;43.68;101593.91;5278327;27;20017;-68
2024/04/15 06:10:27;;;;;;;19.23;7.18;;;;;;;22.76;46.54;101594.13;5268401;27;20007;-68
2024/04/15 06:12:55;;;;;;;14.90;7.00;;;;;;;22.58;47.40;101603.97;5245268;27;20015;-67
2024/04/15 06:15:23;;;;;;;19.92;7.22;;;;;;;22.62;46.95;101615.94;5215533;27;20011;-67
2024/04/15 06:17:50;;;;;;;18.70;7.60;;;;;;;23.03;46.69;101627.69;5244935;27;20007;-67
2024/04/15 06:20:18;;;;;;;21.77;8.02;;;;;;;23.20;46.38;101623.72;5245096;27;20119;-68
2024/04/15 06:22:48;;;;;;;14.10;7.28;;;;;;;23.47;46.58;101619.22;5244655;27;20039;-67
2024/04/15 06:25:16;;;;;;;15.00;7.47;;;;;;;23.56;45.89;101620.63;5244397;27;20425;-66
2024/04/15 06:27:43;;;;;;;17.52;7.70;;;;;;;23.61;46.90;101636.97;5244846;27;20007;-73
2024/04/15 06:30:11;;;;;;;11.05;6.90;;;;;;;23.57;45.82;101627.78;5245004;27;19999;-67
2024/04/15 06:32:38;;;;;;;34.38;9.15;;;;;;;23.60;45.93;101623.47;5244947;27;20042;-67
2024/04/15 06:35:06;;;;;;;20.63;8.82;;;;;;;23.77;47.03;101636.97;5244576;27;20476;-67
2024/04/15 06:37:38;;;;;;;19.20;9.47;;;;;;;24.39;45.85;101637.03;5245330;27;20059;-69
2024/04/15 06:40:06;;;;;;;15.13;7.70;;;;;;;25.09;44.27;101630.34;5229442;27;20031;-68
2024/04/15 06:42:35;;;;;;;19.10;7.93;;;;;;;25.27;40.55;101631.47;5261712;27;20002;-67
2024/04/15 06:45:02;;;;;;;16.02;6.85;;;;;;;25.38;39.38;101639.19;5277338;27;20005;-67
2024/04/15 06:47:30;;;;;;;14.15;6.32;;;;;;;25.06;42.04;101641.41;5275617;27;20098;-67
2024/04/15 06:49:57;;;;;;;12.18;6.65;;;;;;;24.99;42.85;101630.97;5277049;27;20020;-68
2024/04/15 06:52:24;;;;;;;16.30;7.00;;;;;;;24.46;44.85;101650.28;5276959;27;20006;-66
2024/04/15 06:54:53;;;;;;;12.10;6.93;;;;;;;24.36;45.16;101656.41;5277962;27;20014;-71
2024/04/15 06:57:21;;;;;;;14.63;7.18;;;;;;;24.24;45.48;101652.59;5278448;27;20014;-68
2024/04/15 06:59:48;;;;;;;14.32;7.03;;;;;;;23.99;48.18;101648.53;5278554;27;20010;-67
2024/04/15 07:02:21;;;;;;;20.27;7.90;;;;;;;23.77;49.35;101664.72;5247800;27;20010;-68
2024/04/15 07:04:50;;;;;;;15.88;8.00;;;;;;;23.90;46.33;101659.06;5278636;27;20356;-67
2024/04/15 07:07:21;;;;;;;13.23;7.07;;;;;;;24.00;46.93;101667.59;5277982;27;20012;-68
2024/04/15 07:09:49;;;;;;;16.73;7.68;;;;;;;24.34;46.90;101665.91;5277273;27;20006;-72
2024/04/15 07:12:18;;;;;;;16.88;7.05;;;;;;;24.50;44.99;101671.41;5248688;27;20031;-70
2024/04/15 07:14:48;;;;;;;17.20;7.47;;;;;;;24.73;46.14;101670.63;5248299;27;20041;-68
2024/04/15 07:17:15;;;;;;;21.30;7.55;;;;;;;24.76;47.10;101670.69;5267611;27;20035;-67
2024/04/15 07:19:43;;;;;;;17.63;8.05;;;;;;;24.36;47.65;101678.66;5244255;27;20013;-67
2024/04/15 07:22:10;;;;;;;19.60;8.40;;;;;;;23.95;48.07;101678.97;5244502;27;20007;-67
2024/04/15 07:24:38;;;;;;;15.23;8.50;;;;;;;23.48;47.86;101677.09;5244095;27;20334;-70
2024/04/15 07:27:06;;;;;;;13.70;7.28;;;;;;;23.29;49.40;101675.06;5244360;27;20007;-68
2024/04/15 07:29:33;;;;;;;16.50;8.60;;;;;;;23.10;51.74;101686.91;5243638;27;20006;-68
2024/04/15 07:32:03;;;;;;;17.17;8.18;;;;;;;23.23;52.26;101692.34;5244290;27;20015;-71
2024/04/15 07:34:31;;;;;;;15.00;8.45;;;;;;;23.42;53.23;101698.75;5244389;27;20078;-68
2024/04/15 07:36:59;;;;;;;17.15;8.20;;;;;;;23.44;51.53;101705.94;5244122;27;19999;-68
2024/04/15 07:39:26;;;;;;;14.43;8.25;;;;;;;23.69;47.71;101695.44;5243931;27;20007;-67
2024/04/15 07:41:54;;;;;;;13.82;7.72;;;;;;;23.85;48.04;101697.00;5244281;27;20003;-68
2024/04/15 07:44:22;;;;;;;12.77;7.28;;;;;;;24.03;45.92;101694.63;5244012;27;19999;-67
2024/04/15 07:46:49;;;;;;;13.20;7.05;;;;;;;23.95;44.90;101690.09;5243701;27;20082;-67
2024/04/15 07:49:16;;;;;;;10.48;6.45;;;;;;;23.95;44.56;101686.50;5244100;27;19999;-69
2024/04/15 07:51:44;;;;;;;11.25;7.05;;;;;;;24.04;42.97;101676.81;5267677;27;20011;-69
2024/04/15 07:54:12;;;;;;;17.08;7.40;;;;;;;24.03;43.77;101677.97;5277571;27;19998;-69
2024/04/15 07:56:39;;;;;;;14.95;8.68;;;;;;;24.03;45.18;101675.19;5277247;27;20003;-68
2024/04/15 07:59:07;;;;;;;13.07;8.43;;;;;;;24.09;46.47;101670.16;5247107;27;20021;-68
2024/04/15 08:01:35;;;;;;;16.52;8.85;;;;;;;23.98;46.11;101669.91;5277258;27;19999;-70
2024/04/15 08:04:03;;;;;;;13.95;8.98;;;;;;;23.60;48.90;101670.66;5277458;27;20014;-68
2024/04/15 08:06:30;;;;;;;18.90;10.52;;;;;;;23.43;51.37;101660.75;5275372;27;20393;-68
2024/04/15 08:08:58;;;;;;;19.80;10.00;;;;;;;23.36;51.72;101663.34;5275906;27;119539;-69
2024/04/15 08:11:25;;;;;;;19.65;9.93;;;;;;;23.49;52.11;101652.94;5311297;27;20042;-67
2024/04/15 08:13:53;;;;;;;13.95;9.95;;;;;;;23.70;51.86;101658.22;5311699;27;20001;-67
2024/04/15 08:16:21;;;;;;;19.10;10.25;;;;;;;24.04;50.44;101662.91;5314129;27;20001;-68
2024/04/15 08:18:49;;;;;;;18.58;10.38;;;;;;;24.05;51.80;101659.00;5314654;27;20452;-67
2024/04/15 08:21:16;;;;;;;17.48;9.32;;;;;;;23.71;53.90;101662.59;5314455;27;20067;-68
2024/04/15 08:23:45;;;;;;;15.68;9.48;;;;;;;23.10;56.88;101656.41;5314408;27;20477;-67
2024/04/15 08:26:13;;;;;;;14.90;10.10;;;;;;;22.59;58.30;101664.53;5314508;27;19998;-67
2024/04/15 08:28:40;;;;;;;15.60;10.48;;;;;;;22.33;59.00;101666.97;5284430;27;20002;-67
2024/04/15 08:31:08;;;;;;;17.90;9.77;;;;;;;22.30;59.34;101671.25;5314497;27;20005;-67
2024/04/15 08:33:37;;;;;;;17.38;10.20;;;;;;;22.18;57.88;101663.00;5314225;27;20026;-66
2024/04/15 08:36:06;;;;;;;14.32;9.35;;;;;;;22.52;54.84;101671.84;5284196;27;20403;-67
2024/04/15 08:38:34;;;;;;;14.63;9.85;;;;;;;22.83;56.10;101663.59;5314399;27;19998;-67
2024/04/15 08:41:03;;;;;;;16.38;9.05;;;;;;;23.06;54.65;101663.00;5314559;27;20284;-67
2024/04/15 08:43:31;;;;;;;14.25;8.48;;;;;;;23.06;53.96;101669.34;5314199;27;20001;-67
2024/04/15 08:46:00;;;;;;;11.88;8.27;;;;;;;23.19;51.54;101661.75;5313861;27;19998;-67
2024/04/15 08:48:29;;;;;;;10.48;8.10;;;;;;;23.03;51.55;101658.97;5314411;27;20083;-69
2024/04/15 08:50:57;;;;;;;10.85;7.60;;;;;;;22.87;51.80;101660.94;5313867;27;20078;-71
2024/04/15 08:53:25;;;;;;;11.35;7.20;;;;;;;22.80;48.93;101664.28;5314445;27;20001;-70
2024/04/15 08:55:53;;;;;;;14.55;8.00;;;;;;;22.85;52.11;101664.03;5314028;27;20013;-69
2024/04/15 08:58:20;;;;;;;12.80;7.63;;;;;;;22.37;50.83;101667.88;5313906;27;20012;-70
2024/04/15 09:00:48;;;;;;;12.77;8.00;;;;;;;22.46;53.00;101668.53;5313929;27;19997;-71
2024/04/15 09:03:16;;;;;;;9.82;7.82;;;;;;;22.40;51.81;101664.41;5313981;27;20468;-68
2024/04/15 09:05:44;;;;;;;9.35;6.63;;;;;;;22.24;48.88;101665.19;5313798;27;20484;-70
2024/04/15 09:08:12;;;;;;;14.45;7.50;;;;;;;22.15;51.36;101669.22;5313914;27;20036;-70
2024/04/15 09:10:40;;;;;;;10.98;6.93;;;;;;;22.00;50.89;101662.44;5313998;27;20044;-75
2024/04/15 09:13:09;;;;;;;8.70;6.80;;;;;;;21.85;50.63;101663.16;5313623;27;20005;-69
2024/04/15 09:15:38;;;;;;;11.63;7.95;;;;;;;21.59;53.68;101669.91;5313619;27;20002;-73
2024/04/15 09:18:06;;;;;;;15.45;8.32;;;;;;;21.48;54.38;101672.31;5314111;27;20302;-73
2024/04/15 09:20:36;;;;;;;12.07;8.00;;;;;;;21.34;53.96;101669.06;5312981;27;20359;-70
2024/04/15 09:23:20;;;;;;;14.07;6.88;;;;;;;21.24;51.52;101675.88;5312896;27;20038;-67
2024/04/15 09:25:47;;;;;;;14.23;8.10;;;;;;;21.27;55.95;101675.19;5313105;27;20429;-69
2024/04/15 09:28:16;;;;;;;10.13;7.32;;;;;;;21.07;55.51;101687.16;5313027;27;20006;-68
2024/04/15 09:30:44;;;;;;;12.45;8.40;;;;;;;21.01;56.58;101683.78;5312596;27;20041;-67
2024/04/15 09:33:13;;;;;;;12.68;8.63;;;;;;;21.03;57.79;101670.44;5313189;27;20017;-68
2024/04/15 09:35:40;;;;;;;12.38;8.18;;;;;;;20.92;56.69;101665.69;5312983;27;20001;-68
2024/04/15 09:38:10;;;;;;;17.17;9.30;;;;;;;21.04;58.56;101665.72;5313341;27;20381;-68
2024/04/15 09:40:41;;;;;;;12.40;8.82;;;;;;;21.28;57.68;101657.44;5313110;27;20021;-68
2024/04/15 09:43:12;;;;;;;19.90;9.20;;;;;;;21.66;57.03;101645.22;5313692;27;20003;-68
2024/04/15 09:45:39;;;;;;;11.10;6.72;;;;;;;22.09;52.96;101652.03;5313332;27;19997;-68
2024/04/15 09:48:12;;;;;;;11.38;6.45;;;;;;;22.67;49.61;101646.97;5313163;27;20554;-69
2024/04/15 09:50:46;;;;;;;8.57;6.18;;;;;;;23.22;47.39;101647.16;5313070;27;20002;-68
2024/04/15 09:53:27;;;;;;;9.10;6.13;;;;;;;23.47;46.77;101639.44;5313360;27;19998;-68
2024/04/15 09:55:59;;;;;;;13.70;7.60;;;;;;;23.36;49.37;101616.19;5313051;27;19997;-68
2024/04/15 09:58:29;;;;;;;14.73;7.23;;;;;;;23.06;49.35;101610.31;5313459;27;20030;-68
2024/04/15 10:00:59;;;;;;;16.83;8.30;;;;;;;22.97;50.17;101602.22;5313299;27;19997;-67
2024/04/15 10:03:30;;;;;;;15.43;6.55;;;;;;;22.93;47.07;101592.97;5313456;27;20020;-68
2024/04/15 10:06:04;;;;;;;9.25;5.50;;;;;;;23.00;44.91;101593.19;5312237;27;20013;-68
2024/04/15 10:08:32;;;;;;;12.35;6.18;;;;;;;23.09;44.83;101602.09;5289377;27;19998;-67
2024/04/15 10:11:00;;;;;;;9.32;5.45;;;;;;;23.04;44.59;101612.66;5279041;27;20014;-69
2024/04/15 10:13:28;;;;;;;12.52;5.63;;;;;;;23.05;44.84;101625.38;5310815;27;20009;-66
2024/04/15 10:16:02;;;;;;;7.07;5.43;;;;;;;22.88;44.66;101634.81;5313010;27;20074;-68
2024/04/15 10:18:43;;;;;;;7.05;5.10;;;;;;;23.20;43.81;101630.09;5313054;27;20008;-68
2024/04/15 10:21:10;;;;;;;11.20;4.88;;;;;;;23.22;44.55;101636.06;5313225;27;20013;-68
2024/04/15 10:23:44;;;;;;;9.45;5.20;;;;;;;22.86;45.07;101648.22;5282964;27;19997;-66
2024/04/15 10:26:11;;;;;;;13.45;5.40;;;;;;;22.82;45.74;101636.25;5312605;27;20070;-67
2024/04/15 10:28:39;;;;;;;9.82;5.70;;;;;;;22.88;45.86;101624.53;5312810;27;20001;-69
2024/04/15 10:31:06;;;;;;;7.97;5.28;;;;;;;22.98;46.45;101617.69;5309973;27;20519;-68
2024/04/15 10:33:34;;;;;;;9.35;5.40;;;;;;;23.40;46.13;101615.13;5311049;27;19997;-67
2024/04/15 10:36:04;;;;;;;10.20;5.20;;;;;;;23.66;44.43;101608.16;5312632;27;20021;-67
2024/04/15 10:38:34;;;;;;;8.98;5.55;;;;;;;23.51;44.62;101609.81;5312181;27;19998;-67
2024/04/15 10:41:07;;;;;;;9.80;5.88;;;;;;;23.12;46.02;101604.16;5312677;27;20006;-67
2024/04/15 10:43:34;;;;;;;9.07;5.57;;;;;;;22.97;46.00;101605.00;5282746;27;20025;-67
2024/04/15 10:46:03;;;;;;;9.13;6.28;;;;;;;22.79;48.12;101598.16;5312336;27;20012;-67
2024/04/15 10:48:30;;;;;;;9.73;6.13;;;;;;;22.71;47.50;101589.66;5312622;27;20478;-67
2024/04/15 10:50:58;;;;;;;7.40;5.82;;;;;;;22.65;47.45;101590.28;5312540;27;20012;-68
2024/04/15 10:53:25;;;;;;;9.45;6.05;;;;;;;22.71;48.17;101586.91;5312782;27;20095;-72
2024/04/15 10:55:53;;;;;;;9.40;5.82;;;;;;;23.09;47.34;101571.59;5312109;27;20361;-67
2024/04/15 10:58:20;;;;;;;12.85;6.15;;;;;;;23.77;43.93;101569.56;5312703;27;20011;-69
2024/04/15 11:00:48;;;;;;;9.38;5.72;;;;;;;24.13;42.55;101565.53;5312527;27;20005;-67
2024/04/15 11:03:17;;;;;;;9.68;5.85;;;;;;;24.22;42.85;101568.03;5312392;27;20005;-67
2024/04/15 11:05:45;;;;;;;10.75;5.80;;;;;;;24.38;44.29;101565.16;5312322;27;20009;-68
2024/04/15 11:08:13;;;;;;;8.90;5.55;;;;;;;24.31;41.66;101555.53;5312401;27;19998;-68
2024/04/15 11:10:41;;;;;;;10.32;5.60;;;;;;;24.28;40.89;101561.03;5312105;27;20332;-67
2024/04/15 11:13:10;;;;;;;9.15;5.40;;;;;;;24.15;42.51;101570.69;5312415;27;20008;-67
2024/04/15 11:15:39;;;;;;;9.40;6.13;;;;;;;23.82;45.72;101572.03;5312118;27;20046;-67
2024/04/15 11:18:14;;;;;;;12.27;6.93;;;;;;;23.54;47.93;101573.00;5312283;27;20008;-67
2024/04/15 11:20:43;;;;;;;9.65;6.25;;;;;;;23.24;47.71;101574.72;5312821;27;20013;-67
2024/04/15 11:23:11;;;;;;;10.68;5.85;;;;;;;23.17;47.79;101567.03;5312097;27;20066;-69